Time;durP1;ratioP1;P1;durP2;ratioP2;P2;SDS_P1;SDS_P2;PMS_P1;PMS_P2;Temp;Humidity;BMP_temperature;BMP_pressure;BME280_temperature;BME280_humidity;BME280_pressure;Samples;Min_cycle;Max_cycle;Signal;HPM_P1;HPM_P2
2021/09/04 00:01:16;;;;;;;28.73;17.90;;;14.30;99.90;;;;;;5013631;28;20553;-69
2021/09/04 00:03:42;;;;;;;29.70;18.20;;;14.20;99.90;;;;;;5013571;28;20271;-68
2021/09/04 00:06:07;;;;;;;24.80;16.53;;;14.20;99.90;;;;;;5013749;28;20218;-68
2021/09/04 00:08:33;;;;;;;24.53;18.40;;;14.20;99.90;;;;;;5013416;28;20172;-68
2021/09/04 00:10:58;;;;;;;27.17;19.33;;;14.10;99.90;;;;;;5013467;28;20264;-68
2021/09/04 00:13:24;;;;;;;26.17;17.93;;;14.10;99.90;;;;;;5012963;28;20534;-68
2021/09/04 00:15:49;;;;;;;23.23;19.00;;;14.20;99.90;;;;;;5012913;28;20192;-68
2021/09/04 00:18:15;;;;;;;27.07;19.47;;;14.20;99.90;;;;;;5013236;28;20172;-68
2021/09/04 00:20:40;;;;;;;21.97;19.30;;;14.30;99.90;;;;;;4995752;28;20684;-68
2021/09/04 00:23:06;;;;;;;24.93;20.50;;;14.10;99.90;;;;;;5013098;28;20663;-68
2021/09/04 00:25:31;;;;;;;23.00;16.47;;;14.10;99.90;;;;;;5013362;28;20248;-68
2021/09/04 00:27:57;;;;;;;28.40;19.23;;;14.10;99.90;;;;;;5013175;28;20172;-68
2021/09/04 00:30:22;;;;;;;28.50;19.43;;;14.10;99.90;;;;;;5013313;28;20302;-68
2021/09/04 00:32:48;;;;;;;24.23;18.37;;;14.10;99.90;;;;;;5012964;28;20192;-68
2021/09/04 00:35:13;;;;;;;25.13;17.87;;;14.00;99.90;;;;;;5013152;28;20172;-67
2021/09/04 00:37:39;;;;;;;27.87;20.03;;;14.00;99.90;;;;;;5013094;28;20164;-68
2021/09/04 00:40:05;;;;;;;29.37;16.90;;;13.90;99.90;;;;;;5013105;28;20180;-68
2021/09/04 00:42:31;;;;;;;25.00;18.50;;;13.90;99.90;;;;;;5013338;28;20706;-68
2021/09/04 00:44:56;;;;;;;24.73;16.83;;;13.90;99.90;;;;;;5013112;28;20411;-68
2021/09/04 00:47:23;;;;;;;31.73;17.80;;;13.90;99.90;;;;;;5012753;28;20629;-69
2021/09/04 00:49:48;;;;;;;27.53;18.17;;;13.80;99.90;;;;;;5012941;28;20176;-69
2021/09/04 00:52:15;;;;;;;23.70;18.57;;;13.80;99.90;;;;;;5012692;28;20437;-69
2021/09/04 00:54:41;;;;;;;27.50;18.70;;;13.80;99.90;;;;;;5012947;28;20184;-68
2021/09/04 00:57:07;;;;;;;29.70;19.13;;;13.80;99.90;;;;;;5013078;28;20422;-68
2021/09/04 00:59:34;;;;;;;25.10;17.90;;;13.70;99.90;;;;;;5012803;28;20597;-69
2021/09/04 01:01:59;;;;;;;25.27;18.30;;;13.70;99.90;;;;;;5012593;28;20470;-69
2021/09/04 01:04:25;;;;;;;26.83;19.53;;;13.70;99.90;;;;;;5012671;28;20427;-68
2021/09/04 01:06:51;;;;;;;24.87;18.67;;;13.60;99.90;;;;;;5012304;28;20196;-69
2021/09/04 01:09:17;;;;;;;38.53;19.43;;;13.60;99.90;;;;;;5012537;28;20545;-69
2021/09/04 01:11:43;;;;;;;26.33;17.00;;;13.60;99.90;;;;;;5012463;28;20414;-69
2021/09/04 01:14:08;;;;;;;25.63;18.63;;;13.50;99.90;;;;;;5012370;28;20246;-68
2021/09/04 01:16:40;;;;;;;26.00;19.83;;;13.50;99.90;;;;;;5013229;28;20176;-67
2021/09/04 01:19:07;;;;;;;24.40;18.33;;;13.50;99.90;;;;;;5012254;28;20183;-67
2021/09/04 01:21:33;;;;;;;34.07;19.40;;;13.40;99.90;;;;;;5012256;28;20520;-66
2021/09/04 01:24:00;;;;;;;26.80;18.50;;;13.50;99.90;;;;;;5012309;28;20419;-68
2021/09/04 01:26:26;;;;;;;24.77;18.10;;;13.40;99.90;;;;;;5012276;28;20508;-68
2021/09/04 01:28:52;;;;;;;25.53;19.20;;;13.40;99.90;;;;;;5012270;28;20502;-68
2021/09/04 01:31:18;;;;;;;28.40;19.67;;;13.30;99.90;;;;;;5012060;28;20418;-68
2021/09/04 01:33:44;;;;;;;28.00;19.37;;;13.30;99.90;;;;;;5012507;28;20475;-68
2021/09/04 01:36:11;;;;;;;27.87;19.70;;;13.30;99.90;;;;;;5012595;28;20174;-68
2021/09/04 01:38:37;;;;;;;24.80;18.20;;;13.30;99.90;;;;;;5012054;28;20398;-68
2021/09/04 01:41:02;;;;;;;24.63;18.07;;;13.20;99.90;;;;;;4994276;28;20470;-68
2021/09/04 01:43:28;;;;;;;27.83;20.80;;;13.20;99.90;;;;;;5012034;28;20230;-68
2021/09/04 01:45:54;;;;;;;26.43;18.13;;;13.20;99.90;;;;;;5012188;28;20176;-68
2021/09/04 01:48:20;;;;;;;29.30;19.47;;;13.20;99.90;;;;;;5011989;28;20200;-68
2021/09/04 01:50:45;;;;;;;27.10;20.23;;;13.20;99.90;;;;;;5011996;28;20458;-67
2021/09/04 01:53:11;;;;;;;30.00;19.10;;;13.30;99.90;;;;;;5011752;28;20195;-67
2021/09/04 01:55:36;;;;;;;24.73;17.87;;;13.20;99.90;;;;;;5011805;28;20663;-67
2021/09/04 01:58:02;;;;;;;30.90;22.00;;;13.20;99.90;;;;;;5011797;28;20230;-67
2021/09/04 02:00:27;;;;;;;28.50;19.43;;;13.30;99.90;;;;;;5011934;28;20502;-67
2021/09/04 02:02:52;;;;;;;34.40;20.83;;;13.30;99.90;;;;;;5011910;28;20587;-67
2021/09/04 02:05:18;;;;;;;32.70;20.90;;;13.30;99.90;;;;;;5012088;28;20179;-68
2021/09/04 02:07:43;;;;;;;30.57;20.37;;;13.30;99.90;;;;;;5011683;28;20168;-67
2021/09/04 02:10:09;;;;;;;27.00;19.57;;;13.30;99.90;;;;;;5012042;28;20200;-68
2021/09/04 02:12:35;;;;;;;31.93;20.17;;;13.20;99.90;;;;;;5011588;28;20282;-68
2021/09/04 02:15:01;;;;;;;27.30;20.30;;;13.10;99.90;;;;;;5011683;28;20505;-67
2021/09/04 02:17:26;;;;;;;27.03;20.30;;;13.10;99.90;;;;;;5011573;28;20180;-68
2021/09/04 02:19:52;;;;;;;30.07;20.27;;;13.20;99.90;;;;;;5011668;28;20199;-67
2021/09/04 02:22:17;;;;;;;26.13;18.67;;;13.20;99.90;;;;;;5011433;28;20411;-67
2021/09/04 02:24:43;;;;;;;24.97;19.30;;;13.20;99.90;;;;;;5011708;28;20161;-68
2021/09/04 02:27:09;;;;;;;24.83;19.60;;;13.20;99.90;;;;;;5011522;28;20169;-67
2021/09/04 02:29:34;;;;;;;28.07;19.93;;;13.20;99.90;;;;;;5011678;28;20526;-68
2021/09/04 02:32:00;;;;;;;29.97;21.07;;;13.20;99.90;;;;;;5011433;28;20655;-68
2021/09/04 02:34:25;;;;;;;29.13;19.53;;;13.20;99.90;;;;;;5011521;28;20200;-68
2021/09/04 02:36:51;;;;;;;24.70;18.37;;;13.20;99.90;;;;;;5011784;28;20168;-69
2021/09/04 02:39:16;;;;;;;29.37;19.00;;;13.10;99.90;;;;;;5015433;28;20195;-67
2021/09/04 02:41:42;;;;;;;27.20;18.30;;;13.10;99.90;;;;;;5015401;28;20192;-67
2021/09/04 02:44:08;;;;;;;26.77;18.50;;;13.10;99.90;;;;;;5015284;28;20566;-67
2021/09/04 02:46:34;;;;;;;32.37;21.50;;;13.10;99.90;;;;;;5015490;28;20180;-67
2021/09/04 02:48:59;;;;;;;25.73;18.90;;;13.00;99.90;;;;;;5015504;28;20734;-67
2021/09/04 02:51:24;;;;;;;25.33;18.53;;;13.10;99.90;;;;;;5015368;28;20172;-66
2021/09/04 02:53:50;;;;;;;27.10;19.80;;;13.00;99.90;;;;;;5015075;28;20204;-67
2021/09/04 02:56:16;;;;;;;26.57;18.17;;;12.90;99.90;;;;;;5015399;28;20172;-67
2021/09/04 02:58:41;;;;;;;28.77;20.20;;;12.90;99.90;;;;;;5015463;28;20172;-69
2021/09/04 03:01:06;;;;;;;31.80;19.90;;;12.80;99.90;;;;;;5016192;28;20211;-69
2021/09/04 03:03:32;;;;;;;29.53;20.50;;;12.80;99.90;;;;;;5016252;28;20641;-69
2021/09/04 03:06:00;;;;;;;34.27;22.20;;;12.80;99.90;;;;;;5015968;28;20206;-68
2021/09/04 03:08:26;;;;;;;32.13;22.40;;;12.80;99.90;;;;;;5016088;28;20174;-67
2021/09/04 03:10:52;;;;;;;26.53;19.60;;;12.90;99.90;;;;;;5015951;28;20490;-68
2021/09/04 03:13:17;;;;;;;33.27;22.37;;;12.80;99.90;;;;;;5015575;28;20434;-68
2021/09/04 03:15:43;;;;;;;33.90;20.80;;;12.90;99.90;;;;;;5016278;28;20176;-67
2021/09/04 03:18:08;;;;;;;30.87;22.33;;;12.90;99.90;;;;;;5016744;28;20178;-67
2021/09/04 03:20:34;;;;;;;28.30;19.10;;;12.80;99.90;;;;;;5016682;28;20179;-66
2021/09/04 03:22:59;;;;;;;32.43;21.63;;;12.70;99.90;;;;;;5016847;28;20238;-66
2021/09/04 03:25:25;;;;;;;31.00;21.40;;;12.70;99.90;;;;;;5017195;28;20172;-67
2021/09/04 03:27:50;;;;;;;30.67;20.70;;;12.70;99.90;;;;;;5014701;28;20218;-67
2021/09/04 03:30:16;;;;;;;42.90;22.07;;;12.80;99.90;;;;;;5014383;28;20183;-67
2021/09/04 03:32:41;;;;;;;32.50;20.90;;;12.80;99.90;;;;;;5014280;28;20663;-67
2021/09/04 03:35:07;;;;;;;33.77;20.73;;;12.80;99.90;;;;;;5014337;28;20263;-67
2021/09/04 03:37:33;;;;;;;27.20;19.13;;;12.80;99.90;;;;;;5014518;28;20164;-67
2021/09/04 03:39:58;;;;;;;28.13;19.50;;;12.70;99.90;;;;;;5014581;28;20442;-66
2021/09/04 03:42:24;;;;;;;31.60;21.47;;;12.60;99.90;;;;;;5013970;28;20200;-67
2021/09/04 03:44:49;;;;;;;35.80;23.33;;;12.60;99.90;;;;;;5014148;28;20168;-67
2021/09/04 03:47:15;;;;;;;37.20;22.47;;;12.70;99.90;;;;;;5014066;28;20175;-66
2021/09/04 03:49:40;;;;;;;37.93;22.23;;;12.60;99.90;;;;;;5014001;28;20192;-67
2021/09/04 03:52:06;;;;;;;33.90;22.43;;;12.60;99.90;;;;;;5013903;28;20168;-67
2021/09/04 03:54:32;;;;;;;34.60;21.77;;;12.50;99.90;;;;;;5013928;28;20302;-67
2021/09/04 03:56:57;;;;;;;33.10;20.67;;;12.50;99.90;;;;;;5013705;28;20183;-67
2021/09/04 03:59:23;;;;;;;40.87;24.30;;;12.50;99.90;;;;;;5013779;28;20416;-67
2021/09/04 04:01:49;;;;;;;31.77;20.73;;;12.50;99.90;;;;;;5013883;28;20283;-66
2021/09/04 04:04:15;;;;;;;30.53;19.70;;;12.40;99.90;;;;;;5013695;28;20230;-67
2021/09/04 04:06:40;;;;;;;28.47;20.40;;;12.40;99.90;;;;;;5013679;28;20248;-67
2021/09/04 04:09:06;;;;;;;32.10;21.30;;;12.40;99.90;;;;;;5013570;28;20168;-67
2021/09/04 04:11:31;;;;;;;31.73;20.70;;;12.50;99.90;;;;;;5013499;28;20726;-67
2021/09/04 04:13:57;;;;;;;32.00;20.43;;;12.50;99.90;;;;;;5013479;28;20631;-67
2021/09/04 04:16:22;;;;;;;29.83;21.63;;;12.50;99.90;;;;;;5013673;28;20690;-68
2021/09/04 04:18:47;;;;;;;30.00;19.83;;;12.60;99.90;;;;;;5013417;28;20172;-66
2021/09/04 04:21:13;;;;;;;27.93;20.70;;;12.60;99.90;;;;;;5013329;28;20664;-67
2021/09/04 04:23:40;;;;;;;33.80;22.30;;;12.60;99.90;;;;;;5013385;28;20192;-67
2021/09/04 04:26:05;;;;;;;35.57;21.57;;;12.60;99.90;;;;;;5013354;28;20215;-66
2021/09/04 04:28:31;;;;;;;32.83;19.30;;;12.60;99.90;;;;;;5013091;28;20450;-67
2021/09/04 04:30:57;;;;;;;35.17;21.80;;;12.60;99.90;;;;;;5013175;28;20176;-66
2021/09/04 04:33:22;;;;;;;31.60;20.03;;;12.60;99.90;;;;;;5013333;28;20781;-68
2021/09/04 04:35:48;;;;;;;34.47;21.97;;;12.60;99.90;;;;;;5013141;28;20171;-66
2021/09/04 04:38:13;;;;;;;31.17;20.90;;;12.60;99.90;;;;;;5013060;28;20231;-66
2021/09/04 04:40:39;;;;;;;30.70;21.17;;;12.60;99.90;;;;;;5013495;28;20200;-66
2021/09/04 04:43:04;;;;;;;30.33;20.10;;;12.60;99.90;;;;;;5012868;28;20764;-68
2021/09/04 04:45:30;;;;;;;33.70;20.97;;;12.70;99.90;;;;;;5013018;28;20172;-66
2021/09/04 04:47:55;;;;;;;28.37;19.80;;;12.70;99.90;;;;;;5013056;28;20165;-67
2021/09/04 04:50:21;;;;;;;36.27;20.33;;;12.70;99.90;;;;;;5012927;28;20165;-68
2021/09/04 04:52:47;;;;;;;32.27;20.23;;;12.80;99.90;;;;;;5012793;28;20188;-67
2021/09/04 04:55:13;;;;;;;30.50;19.77;;;12.80;99.90;;;;;;5012822;28;20687;-67
2021/09/04 04:57:38;;;;;;;27.60;19.70;;;12.70;99.90;;;;;;5012497;28;20498;-67
2021/09/04 05:00:05;;;;;;;30.70;18.80;;;12.70;99.90;;;;;;5012199;28;20179;-67
2021/09/04 05:02:30;;;;;;;26.57;19.30;;;12.70;99.90;;;;;;5012389;28;20204;-66
2021/09/04 05:04:56;;;;;;;24.00;16.73;;;12.60;99.90;;;;;;5012533;28;20942;-67
2021/09/04 05:07:21;;;;;;;24.57;18.10;;;12.60;99.90;;;;;;5012903;28;20247;-66
2021/09/04 05:09:47;;;;;;;25.80;17.37;;;12.70;99.90;;;;;;5012672;28;20172;-66
2021/09/04 05:12:12;;;;;;;21.40;16.23;;;12.80;99.90;;;;;;5012295;28;20538;-67
2021/09/04 05:14:38;;;;;;;23.47;17.57;;;12.80;99.90;;;;;;5012552;28;20191;-68
2021/09/04 05:17:03;;;;;;;20.43;16.00;;;12.80;99.90;;;;;;5012437;28;20176;-66
2021/09/04 05:19:30;;;;;;;24.97;16.73;;;12.80;99.90;;;;;;5012461;28;20581;-67
2021/09/04 05:21:56;;;;;;;24.40;17.50;;;12.60;99.90;;;;;;5012274;28;20279;-66
2021/09/04 05:24:22;;;;;;;24.70;15.30;;;12.50;99.90;;;;;;5012219;28;20785;-67
2021/09/04 05:26:47;;;;;;;25.10;18.27;;;12.40;99.90;;;;;;5012226;28;20414;-66
2021/09/04 05:29:12;;;;;;;19.83;14.67;;;12.50;99.90;;;;;;5012754;28;20176;-67
2021/09/04 05:31:38;;;;;;;26.27;16.23;;;12.40;99.90;;;;;;5012197;28;20650;-67
2021/09/04 05:34:03;;;;;;;23.60;15.43;;;12.50;99.90;;;;;;5012180;28;20204;-67
2021/09/04 05:36:29;;;;;;;22.93;15.13;;;12.60;99.90;;;;;;5012354;28;20176;-68
2021/09/04 05:38:54;;;;;;;25.30;15.37;;;12.50;99.90;;;;;;5012034;28;20635;-67
2021/09/04 05:41:20;;;;;;;24.17;17.17;;;12.50;99.90;;;;;;5011704;28;20195;-67
2021/09/04 05:43:45;;;;;;;21.33;14.80;;;12.40;99.90;;;;;;5012315;28;20190;-67
2021/09/04 05:46:11;;;;;;;23.50;15.87;;;12.50;99.90;;;;;;5012446;28;20247;-68
2021/09/04 05:48:36;;;;;;;22.37;16.27;;;12.60;99.90;;;;;;5012685;28;20212;-67
2021/09/04 05:51:01;;;;;;;24.37;16.23;;;12.60;99.90;;;;;;5012110;28;20169;-67
2021/09/04 05:53:27;;;;;;;24.87;16.00;;;12.60;99.90;;;;;;5012006;28;20547;-67
2021/09/04 05:55:52;;;;;;;19.50;14.63;;;12.80;99.90;;;;;;5012071;28;20191;-67
2021/09/04 05:58:18;;;;;;;19.17;14.40;;;12.90;99.90;;;;;;5011988;28;20519;-67
2021/09/04 06:00:44;;;;;;;21.10;16.73;;;13.00;99.90;;;;;;5011898;28;20168;-67
2021/09/04 06:03:09;;;;;;;20.50;13.87;;;13.10;99.90;;;;;;5011905;28;20188;-68
2021/09/04 06:05:36;;;;;;;22.40;14.73;;;13.00;99.90;;;;;;5011686;28;20243;-69
2021/09/04 06:08:02;;;;;;;19.47;13.57;;;12.80;99.90;;;;;;4994129;28;20173;-67
2021/09/04 06:10:27;;;;;;;18.30;13.87;;;13.00;99.90;;;;;;5011604;28;20407;-68
2021/09/04 06:12:53;;;;;;;17.03;13.57;;;13.20;99.90;;;;;;5013745;28;20431;-68
2021/09/04 06:15:18;;;;;;;21.37;14.13;;;13.10;99.90;;;;;;5016260;28;20222;-68
2021/09/04 06:17:44;;;;;;;17.57;13.00;;;13.10;99.90;;;;;;5015676;28;20164;-68
2021/09/04 06:20:09;;;;;;;18.47;14.30;;;13.00;99.90;;;;;;5016000;28;20204;-68
2021/09/04 06:22:35;;;;;;;16.90;13.77;;;12.90;99.90;;;;;;5015498;28;20258;-67
2021/09/04 06:25:01;;;;;;;17.53;13.20;;;12.90;99.90;;;;;;5015508;28;20247;-68
2021/09/04 06:27:27;;;;;;;18.77;12.70;;;13.10;99.90;;;;;;5015503;28;20179;-68
2021/09/04 06:29:52;;;;;;;18.30;14.50;;;13.20;99.90;;;;;;5015745;28;20411;-68
2021/09/04 06:32:18;;;;;;;20.13;14.43;;;13.10;99.90;;;;;;5015314;28;20230;-67
2021/09/04 06:34:43;;;;;;;23.13;13.73;;;13.30;99.90;;;;;;5015397;28;20541;-68
2021/09/04 06:37:09;;;;;;;20.13;14.93;;;13.30;99.90;;;;;;5015441;28;20199;-68
2021/09/04 06:39:34;;;;;;;22.33;13.10;;;13.30;99.90;;;;;;5015416;28;20180;-69
2021/09/04 06:42:00;;;;;;;16.83;13.53;;;13.20;99.90;;;;;;5015329;28;20188;-68
2021/09/04 06:44:25;;;;;;;19.00;14.67;;;13.30;99.90;;;;;;5015323;28;20196;-68
2021/09/04 06:46:51;;;;;;;20.40;14.20;;;13.50;99.90;;;;;;5015181;28;20176;-68
2021/09/04 06:49:16;;;;;;;20.20;14.27;;;13.40;99.90;;;;;;5015183;28;20270;-69
2021/09/04 06:51:42;;;;;;;21.20;14.80;;;13.40;99.90;;;;;;5015129;28;20187;-67
2021/09/04 06:54:07;;;;;;;17.50;13.90;;;13.30;99.90;;;;;;5014811;28;20207;-68
2021/09/04 06:56:33;;;;;;;21.60;13.37;;;13.40;99.90;;;;;;5014925;28;20766;-69
2021/09/04 06:58:58;;;;;;;16.07;13.03;;;13.40;99.90;;;;;;5014975;28;20168;-68
2021/09/04 07:01:24;;;;;;;16.10;12.90;;;13.60;99.90;;;;;;5014779;28;20200;-68
2021/09/04 07:03:49;;;;;;;17.60;11.70;;;13.30;99.90;;;;;;5014824;28;20186;-69
2021/09/04 07:06:15;;;;;;;16.90;11.70;;;13.00;99.90;;;;;;5015125;28;20665;-67
2021/09/04 07:08:40;;;;;;;18.30;12.40;;;13.10;99.90;;;;;;5014745;28;20164;-68
2021/09/04 07:11:06;;;;;;;18.07;13.03;;;13.30;99.90;;;;;;5014741;28;20165;-68
2021/09/04 07:13:31;;;;;;;16.53;13.70;;;13.40;99.90;;;;;;5014671;28;20278;-69
2021/09/04 07:15:57;;;;;;;16.93;12.73;;;13.70;99.90;;;;;;5014875;28;20283;-68
2021/09/04 07:18:23;;;;;;;14.93;12.30;;;13.80;99.90;;;;;;5014619;28;20679;-67
2021/09/04 07:20:49;;;;;;;13.97;11.83;;;13.80;99.90;;;;;;5014716;28;20286;-67
2021/09/04 07:23:15;;;;;;;18.67;11.77;;;13.80;99.90;;;;;;5013927;28;20495;-67
2021/09/04 07:25:40;;;;;;;17.17;12.50;;;13.80;99.90;;;;;;5014528;28;20610;-67
2021/09/04 07:28:06;;;;;;;17.27;12.63;;;13.90;99.90;;;;;;5014469;28;20184;-67
2021/09/04 07:30:33;;;;;;;18.60;12.70;;;14.00;99.90;;;;;;5014422;28;20215;-68
2021/09/04 07:32:59;;;;;;;14.73;11.67;;;14.00;99.90;;;;;;5014131;28;20208;-68
2021/09/04 07:35:24;;;;;;;14.13;12.57;;;14.20;99.90;;;;;;5014697;28;20880;-68
2021/09/04 07:37:50;;;;;;;14.77;11.50;;;14.20;99.90;;;;;;5014108;28;20589;-68
2021/09/04 07:40:15;;;;;;;14.77;12.13;;;14.30;99.90;;;;;;5014183;28;20161;-68
2021/09/04 07:42:41;;;;;;;15.70;11.67;;;14.40;99.90;;;;;;4996427;28;20630;-69
2021/09/04 07:45:07;;;;;;;18.90;11.87;;;14.30;99.90;;;;;;5014410;28;20555;-68
2021/09/04 07:47:33;;;;;;;14.83;11.40;;;14.30;99.90;;;;;;5014086;28;20543;-68
2021/09/04 07:49:58;;;;;;;15.80;11.10;;;14.50;99.90;;;;;;5014118;28;20405;-69
2021/09/04 07:52:23;;;;;;;14.73;11.70;;;14.50;99.90;;;;;;5013982;28;20172;-68
2021/09/04 07:54:49;;;;;;;17.43;13.37;;;14.70;99.90;;;;;;5014009;28;20185;-68
2021/09/04 07:57:14;;;;;;;19.90;12.23;;;14.70;99.90;;;;;;5014490;28;20177;-69
2021/09/04 07:59:40;;;;;;;22.37;13.47;;;14.70;99.90;;;;;;5014524;28;20187;-68
2021/09/04 08:02:05;;;;;;;17.03;12.57;;;14.90;99.90;;;;;;5014619;28;20703;-69
2021/09/04 08:04:31;;;;;;;15.10;11.40;;;14.90;99.90;;;;;;5014528;28;20192;-68
2021/09/04 08:06:56;;;;;;;17.73;12.13;;;14.80;99.90;;;;;;5014254;28;20188;-68
2021/09/04 08:09:22;;;;;;;15.80;11.83;;;15.20;99.90;;;;;;5014197;28;20631;-68
2021/09/04 08:11:47;;;;;;;13.83;11.00;;;15.00;99.90;;;;;;5014166;28;20180;-68
2021/09/04 08:14:13;;;;;;;18.10;12.60;;;15.10;99.90;;;;;;5014297;28;20192;-68
2021/09/04 08:16:38;;;;;;;15.13;11.00;;;15.20;99.90;;;;;;5014338;28;20209;-68
2021/09/04 08:19:04;;;;;;;13.70;10.93;;;15.10;99.90;;;;;;5014799;28;20170;-68
2021/09/04 08:21:29;;;;;;;17.50;12.37;;;14.80;99.90;;;;;;5014820;28;20201;-68
2021/09/04 08:23:55;;;;;;;13.27;10.50;;;15.30;99.90;;;;;;5013581;28;20808;-67
2021/09/04 08:26:20;;;;;;;12.13;10.23;;;15.60;99.90;;;;;;5013591;28;20202;-68
2021/09/04 08:28:46;;;;;;;14.13;10.90;;;15.50;99.90;;;;;;5013506;28;20181;-69
2021/09/04 08:31:11;;;;;;;15.13;11.10;;;15.60;99.90;;;;;;5013393;28;20614;-68
2021/09/04 08:33:37;;;;;;;13.13;10.10;;;15.80;99.90;;;;;;5013105;28;20202;-68
2021/09/04 08:36:02;;;;;;;13.53;10.60;;;15.80;99.90;;;;;;5012435;28;20551;-68
2021/09/04 08:38:28;;;;;;;15.60;10.67;;;15.50;99.90;;;;;;5012917;28;20175;-68
2021/09/04 08:40:54;;;;;;;14.43;10.30;;;15.30;99.90;;;;;;5012996;28;20292;-68
2021/09/04 08:43:21;;;;;;;12.13;9.90;;;15.70;99.90;;;;;;5013099;28;20192;-68
2021/09/04 08:45:46;;;;;;;12.27;9.67;;;16.00;99.90;;;;;;5013020;28;20452;-68
2021/09/04 08:48:13;;;;;;;12.23;9.57;;;16.30;99.90;;;;;;5012988;28;20497;-68
2021/09/04 08:50:38;;;;;;;13.40;9.60;;;16.40;99.90;;;;;;5012954;28;20592;-68
2021/09/04 08:53:04;;;;;;;13.10;9.37;;;16.60;99.90;;;;;;5012709;28;20442;-69
2021/09/04 08:55:30;;;;;;;13.07;9.30;;;16.00;99.90;;;;;;5012809;28;20271;-68
2021/09/04 08:57:56;;;;;;;12.33;9.33;;;16.20;99.90;;;;;;5012693;28;20845;-68
2021/09/04 09:00:33;;;;;;;12.10;9.53;;;16.30;99.90;;;;;;5012719;28;20247;-68
2021/09/04 09:02:59;;;;;;;16.63;8.93;;;16.10;99.90;;;;;;5012728;28;20191;-68
2021/09/04 09:05:26;;;;;;;17.17;9.67;;;16.30;99.90;;;;;;5012677;28;20402;-68
2021/09/04 09:07:51;;;;;;;16.63;10.93;;;16.20;99.90;;;;;;5012551;28;20414;-68
2021/09/04 09:10:23;;;;;;;14.20;9.87;;;16.50;99.90;;;;;;5012808;28;20458;-69
2021/09/04 09:12:49;;;;;;;12.70;9.73;;;16.40;99.90;;;;;;5012631;28;20199;-67
2021/09/04 09:15:29;;;;;;;15.03;10.13;;;16.60;99.90;;;;;;5012872;28;20421;-68
2021/09/04 09:18:15;;;;;;;13.37;10.23;;;17.00;99.90;;;;;;4994870;28;20984;-68
2021/09/04 09:20:43;;;;;;;16.33;9.90;;;17.00;99.90;;;;;;5012450;28;20456;-68
2021/09/04 09:23:18;;;;;;;12.97;9.47;;;16.60;99.90;;;;;;5012622;28;20471;-67
2021/09/04 09:25:45;;;;;;;18.23;11.10;;;16.70;99.90;;;;;;5012325;28;20411;-68
2021/09/04 09:28:16;;;;;;;13.77;9.13;;;16.60;99.90;;;;;;5012238;28;20403;-68
2021/09/04 09:30:44;;;;;;;15.70;10.90;;;16.40;99.90;;;;;;5012137;28;20399;-68
2021/09/04 09:33:13;;;;;;;14.93;9.93;;;16.50;99.90;;;;;;4994251;28;20440;-68
2021/09/04 09:35:44;;;;;;;13.77;10.03;;;16.10;99.90;;;;;;5012279;28;20417;-67
2021/09/04 09:38:13;;;;;;;17.50;11.20;;;16.80;99.90;;;;;;5012286;28;20434;-68
2021/09/04 09:40:39;;;;;;;11.10;9.77;;;16.80;99.90;;;;;;5012436;28;20399;-68
2021/09/04 09:43:24;;;;;;;17.77;10.60;;;16.50;99.90;;;;;;5012035;28;20419;-68
2021/09/04 09:45:54;;;;;;;16.70;10.70;;;16.50;99.90;;;;;;5012040;28;20421;-69
2021/09/04 09:48:26;;;;;;;16.70;11.37;;;16.90;99.90;;;;;;5012106;28;20413;-69
2021/09/04 09:50:54;;;;;;;13.40;10.53;;;16.60;99.90;;;;;;5011900;28;20505;-67
2021/09/04 09:53:21;;;;;;;14.20;9.43;;;16.80;99.90;;;;;;5011887;28;20738;-68
2021/09/04 09:55:48;;;;;;;14.60;10.60;;;16.90;99.90;;;;;;5011655;28;21001;-68
2021/09/04 09:58:15;;;;;;;17.10;11.10;;;17.20;99.90;;;;;;5011936;28;20412;-68
2021/09/04 10:00:42;;;;;;;17.73;11.50;;;16.90;99.90;;;;;;5011878;28;20395;-69
2021/09/04 10:03:09;;;;;;;14.70;10.30;;;16.50;99.90;;;;;;5012577;28;20415;-69
2021/09/04 10:05:36;;;;;;;15.90;9.90;;;16.40;99.90;;;;;;5012977;28;20437;-69
2021/09/04 10:08:02;;;;;;;15.57;10.50;;;16.30;99.90;;;;;;5012651;28;20407;-69
2021/09/04 10:10:30;;;;;;;15.37;11.13;;;16.30;99.90;;;;;;5012577;28;20417;-68
2021/09/04 10:12:56;;;;;;;17.20;9.47;;;16.30;99.90;;;;;;5012715;28;20510;-69
2021/09/04 10:15:25;;;;;;;15.57;10.50;;;16.70;99.90;;;;;;5012900;28;20445;-69
2021/09/04 10:17:53;;;;;;;16.47;10.93;;;16.80;99.90;;;;;;5012884;28;20448;-68
2021/09/04 10:20:25;;;;;;;13.23;10.17;;;16.60;99.90;;;;;;5012551;28;20417;-68
2021/09/04 10:22:54;;;;;;;14.60;10.57;;;16.80;99.90;;;;;;5011950;28;20464;-68
2021/09/04 10:25:20;;;;;;;14.70;10.07;;;16.70;99.90;;;;;;5012450;28;20478;-68
2021/09/04 10:27:50;;;;;;;14.17;10.30;;;17.00;99.90;;;;;;5015753;28;20519;-75
2021/09/04 10:30:34;;;;;;;17.60;10.60;;;17.20;99.90;;;;;;5031707;28;20251;-70
2021/09/04 10:33:16;;;;;;;15.97;10.23;;;17.20;99.90;;;;;;5032130;28;20460;-69
2021/09/04 10:35:53;;;;;;;16.03;10.50;;;17.10;99.90;;;;;;5031756;28;20424;-75
2021/09/04 10:38:18;;;;;;;15.10;10.00;;;17.00;99.90;;;;;;5031823;28;20415;-69
2021/09/04 10:40:45;;;;;;;18.77;11.53;;;17.00;99.90;;;;;;5031309;28;20764;-68
2021/09/04 10:43:12;;;;;;;14.53;10.10;;;17.00;99.90;;;;;;5031112;28;20201;-69
2021/09/04 10:45:38;;;;;;;14.33;9.53;;;16.90;99.90;;;;;;5031105;28;20485;-67
2021/09/04 10:48:16;;;;;;;15.53;11.07;;;16.80;99.90;;;;;;5031661;28;20430;-72
2021/09/04 10:50:59;;;;;;;15.40;10.67;;;17.10;99.90;;;;;;5031097;28;20481;-68
2021/09/04 10:53:40;;;;;;;15.60;10.60;;;17.20;99.90;;;;;;5030925;28;20422;-69
2021/09/04 10:56:29;;;;;;;15.83;10.53;;;17.00;99.90;;;;;;5031050;28;20894;-69
2021/09/04 10:58:54;;;;;;;14.57;10.40;;;17.10;99.90;;;;;;5032754;28;20386;-69
2021/09/04 11:01:38;;;;;;;12.60;9.40;;;17.00;99.90;;;;;;5034553;28;20461;-70
2021/09/04 11:04:05;;;;;;;17.10;10.30;;;17.20;99.90;;;;;;5034613;28;20188;-69
2021/09/04 11:06:31;;;;;;;14.70;11.17;;;17.20;99.90;;;;;;5017250;28;20409;-68
2021/09/04 11:08:56;;;;;;;15.10;10.83;;;17.00;99.90;;;;;;5017011;28;20543;-68
2021/09/04 11:11:27;;;;;;;13.33;10.13;;;17.20;99.90;;;;;;5017048;28;20410;-69
2021/09/04 11:13:54;;;;;;;18.57;10.60;;;17.70;99.90;;;;;;5034531;28;20430;-68
2021/09/04 11:16:30;;;;;;;16.13;11.90;;;17.70;99.90;;;;;;5034814;28;20421;-68
2021/09/04 11:19:14;;;;;;;17.20;10.83;;;17.90;99.90;;;;;;5034177;28;20398;-69
2021/09/04 11:21:49;;;;;;;17.47;10.57;;;17.80;99.90;;;;;;5034508;28;20464;-69
2021/09/04 11:24:33;;;;;;;16.17;12.30;;;17.50;99.90;;;;;;5034660;28;20962;-70
2021/09/04 11:27:09;;;;;;;14.50;11.87;;;17.50;99.90;;;;;;5034230;28;20911;-69
2021/09/04 11:29:41;;;;;;;15.70;10.23;;;17.50;99.90;;;;;;5034471;28;20497;-69
2021/09/04 11:32:08;;;;;;;13.33;11.73;;;17.50;99.90;;;;;;5034248;28;20926;-68
2021/09/04 11:34:46;;;;;;;17.13;11.47;;;17.30;99.90;;;;;;5016423;28;20430;-69
2021/09/04 11:37:22;;;;;;;14.13;11.20;;;17.80;99.90;;;;;;5033086;28;20442;-69
2021/09/04 11:39:50;;;;;;;17.63;10.20;;;18.00;99.90;;;;;;5016560;28;20408;-70
2021/09/04 11:42:22;;;;;;;12.80;10.10;;;18.00;99.90;;;;;;5034918;28;20473;-69
2021/09/04 11:44:52;;;;;;;11.77;9.27;;;18.00;99.90;;;;;;5034377;28;20920;-69
2021/09/04 11:47:19;;;;;;;20.20;11.50;;;18.20;99.90;;;;;;5033863;28;20821;-70
2021/09/04 11:49:51;;;;;;;13.70;10.60;;;18.00;99.90;;;;;;5016286;28;20785;-69
2021/09/04 11:52:22;;;;;;;11.77;9.77;;;18.00;99.90;;;;;;5033786;28;20418;-69
2021/09/04 11:54:48;;;;;;;17.00;10.80;;;18.20;99.90;;;;;;5033057;28;20434;-68
2021/09/04 11:57:31;;;;;;;12.60;10.00;;;17.90;99.90;;;;;;5033833;28;20949;-69
2021/09/04 12:00:08;;;;;;;21.13;10.77;;;18.00;99.90;;;;;;5032749;28;20169;-68
2021/09/04 12:02:35;;;;;;;14.00;9.63;;;18.20;99.90;;;;;;5033349;28;20507;-68
2021/09/04 12:05:04;;;;;;;16.17;10.03;;;18.30;99.90;;;;;;5033575;28;20444;-68
2021/09/04 12:07:30;;;;;;;13.77;9.30;;;18.10;99.90;;;;;;5033414;28;20401;-68
2021/09/04 12:09:58;;;;;;;14.80;9.40;;;18.30;99.90;;;;;;5032210;28;20412;-68
2021/09/04 12:12:28;;;;;;;15.70;9.40;;;18.70;99.90;;;;;;5033444;28;20416;-69
2021/09/04 12:14:55;;;;;;;13.60;9.70;;;18.90;99.90;;;;;;5033728;28;20434;-69
2021/09/04 12:17:21;;;;;;;14.20;9.47;;;19.00;99.90;;;;;;5030311;28;20805;-69
2021/09/04 12:19:50;;;;;;;11.97;8.87;;;18.90;99.90;;;;;;5033447;28;20420;-70
2021/09/04 12:22:31;;;;;;;13.17;10.40;;;19.00;99.90;;;;;;5032132;28;20555;-70
2021/09/04 12:24:56;;;;;;;13.27;9.80;;;19.00;99.90;;;;;;5033159;28;20433;-68
2021/09/04 12:27:37;;;;;;;19.40;10.80;;;18.70;99.90;;;;;;5033337;28;20404;-69